createdAt,value
2022-10-29T00:08:55.986Z,14.33
2022-10-29T00:23:51.004Z,14.37
2022-10-29T00:38:47.398Z,14.19
2022-10-29T00:53:43.378Z,14.02
2022-10-29T01:08:39.870Z,13.82
2022-10-29T01:23:36.320Z,13.96
2022-10-29T01:38:32.613Z,13.79
2022-10-29T01:53:28.853Z,13.54
2022-10-29T02:08:24.663Z,13.34
2022-10-29T02:23:20.749Z,13.17
2022-10-29T02:38:17.232Z,13.05
2022-10-29T02:53:13.024Z,12.83
2022-10-29T03:08:08.899Z,12.78
2022-10-29T03:23:04.778Z,12.4
2022-10-29T03:38:00.902Z,12.23
2022-10-29T03:52:57.348Z,12.27
2022-10-29T04:07:53.973Z,12.32
2022-10-29T04:37:46.825Z,12.51
2022-10-29T04:52:43.217Z,13.27
2022-10-29T05:07:39.797Z,13.55
2022-10-29T05:22:35.859Z,13.27
2022-10-29T05:37:32.121Z,13.45
2022-10-29T05:52:28.622Z,14.29
2022-10-29T06:07:24.989Z,14.77
2022-10-29T06:22:21.401Z,15.06
2022-10-29T06:37:17.931Z,15.08
2022-10-29T06:52:14.263Z,15.11
2022-10-29T07:07:10.836Z,14.68
2022-10-29T07:22:07.037Z,14.74
2022-10-29T07:37:03.581Z,14.69
2022-10-29T07:52:00.123Z,15.1
2022-10-29T08:06:56.544Z,15.4
2022-10-29T08:21:53.126Z,15.57
2022-10-29T08:36:49.017Z,15.87
2022-10-29T08:51:45.334Z,15.91
2022-10-29T09:06:41.824Z,16.35
2022-10-29T09:21:38.166Z,16.91
2022-10-29T09:36:34.615Z,17.22
2022-10-29T09:51:31.061Z,17.47
2022-10-29T10:06:27.549Z,17.96
2022-10-29T10:21:23.922Z,18.67
2022-10-29T10:36:20.817Z,18.39
2022-10-29T10:51:17.429Z,18.29
2022-10-29T11:06:13.749Z,18.12
2022-10-29T11:21:10.248Z,18.19
2022-10-29T11:36:06.222Z,18.55
2022-10-29T11:51:02.363Z,18.8
2022-10-29T12:05:58.997Z,19.18
2022-10-29T12:20:55.661Z,19.41
2022-10-29T12:35:51.922Z,19.44
2022-10-29T12:50:47.785Z,19.68
2022-10-29T13:05:43.894Z,19.97
2022-10-29T13:20:40.874Z,20.17
2022-10-29T13:35:37.431Z,20.04
2022-10-29T13:50:33.049Z,20.06
2022-10-29T14:05:29.741Z,20.06
2022-10-29T14:20:25.667Z,19.8
2022-10-29T14:35:22.041Z,19.55
2022-10-29T14:50:18.094Z,19.39
2022-10-29T15:05:14.238Z,19.18
2022-10-29T15:20:10.158Z,19.12
2022-10-29T15:35:06.182Z,19.15
2022-10-29T15:50:02.038Z,19.39
2022-10-29T16:04:57.950Z,19.03
2022-10-29T16:19:53.473Z,18.69
2022-10-29T16:34:49.573Z,18.3
2022-10-29T16:49:45.578Z,18.32
2022-10-29T17:04:40.974Z,18.15
2022-10-29T17:19:37.249Z,18.44
2022-10-29T17:34:33.543Z,18.44
2022-10-29T17:49:30.050Z,18.4
2022-10-29T18:04:26.278Z,18.28
2022-10-29T18:19:22.591Z,18.28
2022-10-29T18:34:18.952Z,18.3
2022-10-29T18:49:15.368Z,18.06
2022-10-29T19:04:11.601Z,17.86
2022-10-29T19:19:08.158Z,17.72
2022-10-29T19:34:04.304Z,17.58
2022-10-29T19:49:00.438Z,17.62
2022-10-29T20:03:56.780Z,17.53
2022-10-29T20:18:52.584Z,17.14
2022-10-29T20:33:48.967Z,17.3
2022-10-29T20:48:45.423Z,17.27
2022-10-29T21:03:42.265Z,17.33
2022-10-29T21:18:38.428Z,17.39
2022-10-29T21:33:34.568Z,17.04
2022-10-29T21:48:30.638Z,16.22
2022-10-29T22:03:27.083Z,15.83
2022-10-29T22:18:23.456Z,15.71
2022-10-29T22:33:19.340Z,15.52
2022-10-29T22:48:15.566Z,15.11
2022-10-29T23:03:12.033Z,15.43
2022-10-29T23:18:08.812Z,15.1
2022-10-29T23:33:05.262Z,15.01
2022-10-29T23:48:01.660Z,14.82
